Airport View

Enter AWOS ICAO identifier for current METAR.

ex. KFNL

KBKN 080615Z AUTO 15013G19KT 10SM 26/24 A2994 RMK AO2

8 Aug 2020 06:23

Frequency: 120.575

Phone: 580-363-0688

Other Area AWOS: KPNC - KWLD - KWDG - KEND

TAF KPNC 080520Z 0806/0906 15013KT P6SM SCT250 WS020/19045KT FM081400 19015G24KT P6SM SCT150 BKN250 FM090000 17014KT P6SM SCT250